Time,TemperatureF,DewpointF,PressureIn,WindDirection,WindDirectionDegrees,WindSpeedMPH,WindSpeedGustMPH,Humidity,HourlyPrecipIn,Conditions,Clouds,dailyrainin,SolarRadiationWatts/m^2,SoftwareType,DateUTC
2013-06-18 00:22:00,64.0,34.0,-100.00,NW,313,8.0,26.0,33,0.00,,,0.00,1.000000,,2013-06-18 07:22:00,
2013-06-18 00:33:00,64.0,34.0,-100.00,NW,313,8.0,26.0,33,0.00,,,0.00,1.000000,,2013-06-18 07:33:00,
2013-06-18 00:43:00,64.0,34.0,-100.00,NW,313,8.0,26.0,33,0.00,,,0.00,1.000000,,2013-06-18 07:43:00,
2013-06-18 00:52:00,64.0,34.0,-100.00,NW,313,8.0,26.0,33,0.00,,,0.00,1.000000,,2013-06-18 07:52:00,
2013-06-18 01:23:00,62.0,35.0,-100.00,NNW,333,13.0,22.0,37,0.00,,,0.00,1.000000,,2013-06-18 08:23:00,
2013-06-18 01:32:00,62.0,35.0,-100.00,NNW,333,13.0,22.0,37,0.00,,,0.00,1.000000,,2013-06-18 08:32:00,
2013-06-18 01:43:00,62.0,35.0,-100.00,NNW,333,13.0,22.0,37,0.00,,,0.00,1.000000,,2013-06-18 08:43:00,
2013-06-18 01:52:00,62.0,35.0,-100.00,NNW,333,13.0,22.0,37,0.00,,,0.00,1.000000,,2013-06-18 08:52:00,
2013-06-18 02:34:00,63.0,34.0,-100.00,NNW,331,8.0,17.0,34,0.00,,,0.00,1.000000,,2013-06-18 09:34:00,
2013-06-18 02:42:00,63.0,34.0,-100.00,NNW,331,8.0,17.0,34,0.00,,,0.00,1.000000,,2013-06-18 09:42:00,
2013-06-18 02:53:00,63.0,34.0,-100.00,NNW,331,8.0,17.0,34,0.00,,,0.00,1.000000,,2013-06-18 09:53:00,
2013-06-18 03:22:00,61.0,32.0,-100.00,West,264,5.0,16.0,33,0.00,,,0.00,1.000000,,2013-06-18 10:22:00,
2013-06-18 03:33:00,61.0,32.0,-100.00,West,264,5.0,16.0,33,0.00,,,0.00,1.000000,,2013-06-18 10:33:00,
2013-06-18 03:43:00,61.0,32.0,-100.00,West,264,5.0,16.0,33,0.00,,,0.00,1.000000,,2013-06-18 10:43:00,
2013-06-18 03:53:00,61.0,32.0,-100.00,West,264,5.0,16.0,33,0.00,,,0.00,1.000000,,2013-06-18 10:53:00,
2013-06-18 04:22:00,60.0,32.0,-100.00,West,278,5.0,12.0,35,0.00,,,0.00,1.000000,,2013-06-18 11:22:00,
2013-06-18 04:32:00,60.0,32.0,-100.00,West,278,5.0,12.0,35,0.00,,,0.00,1.000000,,2013-06-18 11:32:00,
2013-06-18 04:43:00,60.0,32.0,-100.00,West,278,5.0,12.0,35,0.00,,,0.00,1.000000,,2013-06-18 11:43:00,
2013-06-18 04:52:00,60.0,32.0,-100.00,West,278,5.0,12.0,35,0.00,,,0.00,1.000000,,2013-06-18 11:52:00,
2013-06-18 05:32:00,60.0,30.0,-100.00,WNW,293,5.0,16.0,32,0.00,,,0.00,1.000000,,2013-06-18 12:32:00,
2013-06-18 05:42:00,60.0,30.0,-100.00,WNW,293,5.0,16.0,32,0.00,,,0.00,1.000000,,2013-06-18 12:42:00,
2013-06-18 05:52:00,60.0,30.0,-100.00,WNW,293,5.0,16.0,32,0.00,,,0.00,1.000000,,2013-06-18 12:52:00,
2013-06-18 06:22:00,60.0,29.0,-100.00,WNW,300,7.0,15.0,31,0.00,,,0.00,4.000000,,2013-06-18 13:22:00,
2013-06-18 06:33:00,60.0,29.0,-100.00,WNW,300,7.0,15.0,31,0.00,,,0.00,4.000000,,2013-06-18 13:33:00,
2013-06-18 06:43:00,60.0,29.0,-100.00,WNW,300,7.0,15.0,31,0.00,,,0.00,4.000000,,2013-06-18 13:43:00,
2013-06-18 06:52:00,60.0,29.0,-100.00,WNW,300,7.0,15.0,31,0.00,,,0.00,4.000000,,2013-06-18 13:52:00,
2013-06-18 07:33:00,62.0,29.0,-100.00,NW,326,6.0,11.0,28,0.00,,,0.00,19.000000,,2013-06-18 14:33:00,
2013-06-18 07:43:00,62.0,29.0,-100.00,NW,326,6.0,11.0,28,0.00,,,0.00,19.000000,,2013-06-18 14:43:00,
2013-06-18 07:52:00,62.0,29.0,-100.00,NW,326,6.0,11.0,28,0.00,,,0.00,19.000000,,2013-06-18 14:52:00,
2013-06-18 08:22:00,67.0,30.0,-100.00,NW,304,3.0,9.0,25,0.00,,,0.00,122.000000,,2013-06-18 15:22:00,
2013-06-18 08:33:00,67.0,30.0,-100.00,NW,304,3.0,9.0,25,0.00,,,0.00,122.000000,,2013-06-18 15:33:00,
2013-06-18 08:43:00,67.0,30.0,-100.00,NW,304,3.0,9.0,25,0.00,,,0.00,122.000000,,2013-06-18 15:43:00,
2013-06-18 08:53:00,67.0,30.0,-100.00,NW,304,3.0,9.0,25,0.00,,,0.00,122.000000,,2013-06-18 15:53:00,
2013-06-18 09:22:00,70.0,32.0,-100.00,South,176,5.0,9.0,24,0.00,,,0.00,80.000000,,2013-06-18 16:22:00,
2013-06-18 09:33:00,70.0,32.0,-100.00,South,176,5.0,9.0,24,0.00,,,0.00,80.000000,,2013-06-18 16:33:00,
2013-06-18 09:43:00,70.0,32.0,-100.00,South,176,5.0,9.0,24,0.00,,,0.00,80.000000,,2013-06-18 16:43:00,
2013-06-18 09:52:00,70.0,32.0,-100.00,South,176,5.0,9.0,24,0.00,,,0.00,80.000000,,2013-06-18 16:52:00,
2013-06-18 10:22:00,72.0,31.0,-100.00,South,183,10.0,16.0,22,0.00,,,-99.99,51.000000,,2013-06-18 17:22:00,
2013-06-18 10:33:00,72.0,31.0,-100.00,South,183,10.0,16.0,22,0.00,,,-99.99,51.000000,,2013-06-18 17:33:00,
2013-06-18 10:43:00,72.0,31.0,-100.00,South,183,10.0,16.0,22,0.00,,,-99.99,51.000000,,2013-06-18 17:43:00,
2013-06-18 10:53:00,72.0,31.0,-100.00,South,183,10.0,16.0,22,0.00,,,-99.99,51.000000,,2013-06-18 17:53:00,
2013-06-18 11:22:00,75.0,36.0,-100.00,South,191,11.0,20.0,24,0.00,,,0.00,834.000000,,2013-06-18 18:22:00,
2013-06-18 11:33:00,75.0,36.0,-100.00,South,191,11.0,20.0,24,0.00,,,0.00,834.000000,,2013-06-18 18:33:00,
2013-06-18 11:42:00,75.0,36.0,-100.00,South,191,11.0,20.0,24,0.00,,,0.00,834.000000,,2013-06-18 18:42:00,
2013-06-18 11:53:00,75.0,36.0,-100.00,South,191,11.0,20.0,24,0.00,,,0.00,834.000000,,2013-06-18 18:53:00,
2013-06-18 12:22:00,77.0,38.0,-100.00,South,189,15.0,22.0,25,0.00,,,0.00,700.000000,,2013-06-18 19:22:00,
2013-06-18 12:33:00,77.0,38.0,-100.00,South,189,15.0,22.0,25,0.00,,,0.00,700.000000,,2013-06-18 19:33:00,
2013-06-18 12:43:00,77.0,38.0,-100.00,South,189,15.0,22.0,25,0.00,,,0.00,700.000000,,2013-06-18 19:43:00,
2013-06-18 12:52:00,77.0,38.0,-100.00,South,189,15.0,22.0,25,0.00,,,0.00,700.000000,,2013-06-18 19:52:00,
2013-06-18 13:33:00,78.0,39.0,-100.00,South,186,14.0,24.0,25,0.00,,,0.00,1134.000000,,2013-06-18 20:33:00,
2013-06-18 13:43:00,78.0,39.0,-100.00,South,186,14.0,24.0,25,0.00,,,0.00,1134.000000,,2013-06-18 20:43:00,
2013-06-18 13:52:00,78.0,39.0,-100.00,South,186,14.0,24.0,25,0.00,,,0.00,1134.000000,,2013-06-18 20:52:00,
2013-06-18 14:33:00,78.0,43.0,-100.00,South,185,16.0,27.0,29,0.00,,,-99.99,1155.000000,,2013-06-18 21:33:00,
2013-06-18 14:43:00,78.0,43.0,-100.00,South,185,16.0,27.0,29,0.00,,,-99.99,1155.000000,,2013-06-18 21:43:00,
2013-06-18 14:52:00,78.0,43.0,-100.00,South,185,16.0,27.0,29,0.00,,,-99.99,1155.000000,,2013-06-18 21:52:00,
2013-06-18 15:34:00,75.0,43.0,-100.00,South,186,17.0,27.0,32,0.00,,,0.00,1093.000000,,2013-06-18 22:34:00,
2013-06-18 15:42:00,75.0,43.0,-100.00,South,186,17.0,27.0,32,0.00,,,0.00,1093.000000,,2013-06-18 22:42:00,
2013-06-18 15:53:00,75.0,43.0,-100.00,South,186,17.0,27.0,32,0.00,,,0.00,1093.000000,,2013-06-18 22:53:00,
2013-06-18 16:35:00,75.0,45.0,-100.00,SSW,192,16.0,26.0,34,0.00,,,0.00,972.000000,,2013-06-18 23:35:00,
2013-06-18 16:45:00,75.0,45.0,-100.00,SSW,192,16.0,26.0,34,0.00,,,0.00,972.000000,,2013-06-18 23:45:00,
2013-06-18 16:53:00,75.0,45.0,-100.00,SSW,192,16.0,26.0,34,0.00,,,0.00,972.000000,,2013-06-18 23:53:00,
2013-06-18 17:33:00,73.0,44.0,-100.00,SSW,195,16.0,25.0,35,0.00,,,0.00,778.000000,,2013-06-19 00:33:00,
2013-06-18 17:43:00,73.0,44.0,-100.00,SSW,195,16.0,25.0,35,0.00,,,0.00,778.000000,,2013-06-19 00:43:00,
2013-06-18 17:53:00,73.0,44.0,-100.00,SSW,195,16.0,25.0,35,0.00,,,0.00,778.000000,,2013-06-19 00:53:00,
2013-06-18 18:22:00,69.0,44.0,-100.00,South,189,15.0,24.0,41,0.00,,,0.00,531.000000,,2013-06-19 01:22:00,
2013-06-18 18:32:00,69.0,44.0,-100.00,South,189,15.0,24.0,41,0.00,,,0.00,531.000000,,2013-06-19 01:32:00,
2013-06-18 18:42:00,69.0,44.0,-100.00,South,189,15.0,24.0,41,0.00,,,0.00,531.000000,,2013-06-19 01:42:00,
2013-06-18 18:53:00,69.0,44.0,-100.00,South,189,15.0,24.0,41,0.00,,,0.00,531.000000,,2013-06-19 01:53:00,
2013-06-18 19:32:00,65.0,44.0,-100.00,SSW,196,12.0,21.0,46,0.00,,,0.00,309.000000,,2013-06-19 02:32:00,
2013-06-18 19:42:00,65.0,44.0,-100.00,SSW,196,12.0,21.0,46,0.00,,,0.00,309.000000,,2013-06-19 02:42:00,
2013-06-18 19:51:00,65.0,44.0,-100.00,SSW,196,12.0,21.0,46,0.00,,,0.00,309.000000,,2013-06-19 02:51:00,
2013-06-18 20:21:00,62.0,45.0,-100.00,SSW,206,10.0,16.0,54,0.00,,,0.00,64.000000,,2013-06-19 03:21:00,
2013-06-18 20:33:00,62.0,45.0,-100.00,SSW,206,10.0,16.0,54,0.00,,,0.00,64.000000,,2013-06-19 03:33:00,
2013-06-18 20:42:00,62.0,45.0,-100.00,SSW,206,10.0,16.0,54,0.00,,,0.00,64.000000,,2013-06-19 03:42:00,
2013-06-18 20:52:00,62.0,45.0,-100.00,SSW,206,10.0,16.0,54,0.00,,,0.00,64.000000,,2013-06-19 03:52:00,
2013-06-18 21:22:00,59.0,46.0,-100.00,West,275,4.0,14.0,61,0.00,,,0.00,3.000000,,2013-06-19 04:22:00,
2013-06-18 21:32:00,59.0,46.0,-100.00,West,275,4.0,14.0,61,0.00,,,0.00,3.000000,,2013-06-19 04:32:00,
2013-06-18 21:42:00,59.0,46.0,-100.00,West,275,4.0,14.0,61,0.00,,,0.00,3.000000,,2013-06-19 04:42:00,
2013-06-18 21:52:00,59.0,46.0,-100.00,West,275,4.0,14.0,61,0.00,,,0.00,3.000000,,2013-06-19 04:52:00,
2013-06-18 22:22:00,59.0,41.0,-100.00,WNW,282,7.0,16.0,52,0.00,,,0.00,1.000000,,2013-06-19 05:22:00,
2013-06-18 22:32:00,59.0,41.0,-100.00,WNW,282,7.0,16.0,52,0.00,,,0.00,1.000000,,2013-06-19 05:32:00,
2013-06-18 22:42:00,59.0,41.0,-100.00,WNW,282,7.0,16.0,52,0.00,,,0.00,1.000000,,2013-06-19 05:42:00,
2013-06-18 22:52:00,59.0,41.0,-100.00,WNW,282,7.0,16.0,52,0.00,,,0.00,1.000000,,2013-06-19 05:52:00,
2013-06-18 23:33:00,58.0,42.0,-100.00,NW,305,6.0,14.0,55,0.00,,,0.00,1.000000,,2013-06-19 06:33:00,
2013-06-18 23:42:00,58.0,42.0,-100.00,NW,305,6.0,14.0,55,0.00,,,0.00,1.000000,,2013-06-19 06:42:00,
2013-06-18 23:52:00,58.0,42.0,-100.00,NW,305,6.0,14.0,55,0.00,,,0.00,1.000000,,2013-06-19 06:52:00,